Hovedside
METAR-TAF:

METAR-TAF

Lufthavner :

Sligo, Irland

breddegrad: 54-16-49N, lengdegrad: 8-35-57W, høyde over havet: 3 m

Gjeldene værobservasjon

Denne rapporten ble laget for 43 minutter siden, klokken 20:30 UTC
Vind 9 kt fra Vest-sørvest
Temperatur 10°C
Trykk 994 hPa
Sikt: 5000 m
Spredte skyer i en høyde av 2200 ft
Brutte skyer i en høyde av 3100 ft
Overskyet i en høyde av 4700 ft
regn,

METAR: EISG 142030Z 25009KT 5000 RA SCT022 BKN031 OVC047 10/// Q0994

Tid: 22:13 (21:13 UTC)

Varsel

Denne rapporten ble laget for 1 time og 13 minutter siden, klokken 20:00 UTC
Varsel gyldig fra 14. klokken 21 UTC til 15. klokken 06 UTC
Vind 10 kt fra Vest-sørvest
Sikt 10 km eller mer
Få skyer i en høyde av 1000 ft
Brutte skyer i en høyde av 4000 ft
Midlertidig
fra 14. klokken 21 UTC til 14. klokken 22 UTC
Vind 3 kt fra skiftende retning
Sikt: 5000 m
Brutte skyer i en høyde av 900 ft
lett regn,

TAF: EISG 142000Z 1421/1506 25010KT 9999 FEW010 BKN040 TEMPO 1421/1422 VRB03KT 5000 -RA BKN009

Værobservasjoner og værvarsel for over 4000 flyplasser (METAR- og TAF-rapporter).

Tilgjengelige stasjoner er representert av de røde og gule prikkene på kartet.

Hold musepekeren over prikken for å se navnet på stasjonen.

Klikk så for å se værobservasjoner og -varsler.

For å forandre kartet kan du klikke på den grønne knappen med svart kryss for å zoome inn, på den grønne knappen med strek for å zoome ut, eller på de grønne pilene for å se tilstøtende kart.


METAR-TAF: